createdAt,value
2016-03-22T00:00:50.423Z,77.6
2016-03-22T00:01:50.395Z,77.79
2016-03-22T00:02:50.381Z,77.89
2016-03-22T00:03:50.354Z,77.6
2016-03-22T00:04:50.325Z,77.89
2016-03-22T00:05:50.296Z,77.98
2016-03-22T00:06:50.268Z,77.98
2016-03-22T00:07:50.239Z,77.7
2016-03-22T00:08:50.225Z,77.79
2016-03-22T00:09:50.197Z,77.79
2016-03-22T00:10:50.185Z,78.08
2016-03-22T00:11:50.141Z,78.08
2016-03-22T00:12:50.112Z,77.89
2016-03-22T00:13:50.083Z,77.79
2016-03-22T00:14:50.054Z,77.79
2016-03-22T00:15:50.027Z,77.79
2016-03-22T00:16:49.997Z,77.79
2016-03-22T00:17:49.984Z,77.89
2016-03-22T00:18:49.957Z,77.79
2016-03-22T00:19:49.927Z,77.79
2016-03-22T00:20:49.899Z,77.89
2016-03-22T00:21:49.871Z,78.08
2016-03-22T00:22:49.857Z,77.98
2016-03-22T00:23:49.829Z,77.79
2016-03-22T00:24:49.801Z,78.55
2016-03-22T00:25:49.771Z,78.27
2016-03-22T00:26:49.743Z,78.45
2016-03-22T00:27:49.731Z,78.27
2016-03-22T00:28:49.686Z,78.27
2016-03-22T00:29:49.657Z,78.17
2016-03-22T00:30:49.628Z,78.36
2016-03-22T00:31:49.616Z,78.83
2016-03-22T00:32:49.586Z,78.64
2016-03-22T00:33:49.558Z,78.83
2016-03-22T00:34:49.530Z,78.74
2016-03-22T00:35:49.501Z,78.74
2016-03-22T00:36:49.472Z,79.12
2016-03-22T00:37:49.443Z,79.41
2016-03-22T00:38:49.416Z,79.31
2016-03-22T00:39:49.387Z,79.12
2016-03-22T00:40:49.374Z,79.12
2016-03-22T00:41:49.345Z,79.12
2016-03-22T00:42:49.316Z,78.93
2016-03-22T00:43:49.288Z,79.12
2016-03-22T00:44:49.275Z,78.93
2016-03-22T00:45:49.231Z,79.03
2016-03-22T00:46:49.202Z,79.41
2016-03-22T00:47:49.190Z,79.41
2016-03-22T00:48:49.161Z,79.31
2016-03-22T00:49:49.132Z,79.31
2016-03-22T00:50:49.104Z,79.41
2016-03-22T00:51:49.075Z,79.69
2016-03-22T00:52:49.047Z,79.69
2016-03-22T00:53:49.017Z,80.07
2016-03-22T00:54:48.990Z,80.07
2016-03-22T00:55:48.976Z,79.97
2016-03-22T00:56:48.948Z,79.79
2016-03-22T00:57:48.919Z,80.26
2016-03-22T00:58:48.891Z,80.16
2016-03-22T00:59:48.861Z,80.16
2016-03-22T01:00:48.834Z,80.16
2016-03-22T01:01:48.805Z,80.35
2016-03-22T01:02:48.791Z,80.26
2016-03-22T01:03:48.764Z,80.07
2016-03-22T01:04:48.735Z,80.45
2016-03-22T01:05:48.707Z,80.16
2016-03-22T01:06:48.678Z,80.16
2016-03-22T01:07:48.649Z,80.07
2016-03-22T01:08:48.621Z,80.16
2016-03-22T01:09:48.593Z,80.35
2016-03-22T01:10:48.579Z,80.26
2016-03-22T01:11:48.551Z,80.35
2016-03-22T01:12:48.522Z,80.45
2016-03-22T01:13:48.493Z,81.12
2016-03-22T01:14:48.466Z,81.02
2016-03-22T01:15:48.437Z,80.83
2016-03-22T01:16:48.408Z,80.83
2016-03-22T01:17:48.379Z,80.64
2016-03-22T01:18:48.351Z,80.74
2016-03-22T01:19:48.337Z,81.02
2016-03-22T01:20:48.309Z,80.55
2016-03-22T01:21:48.281Z,80.83
2016-03-22T01:22:48.252Z,81.17
2016-03-22T01:23:48.224Z,80.93
2016-03-22T01:24:48.195Z,81.4
2016-03-22T01:25:48.166Z,81.4
2016-03-22T01:26:48.154Z,81.12
2016-03-22T01:27:48.125Z,81.12
2016-03-22T01:28:48.097Z,80.93
2016-03-22T01:29:48.067Z,81.02
2016-03-22T01:30:48.039Z,81.02
2016-03-22T01:31:48.011Z,81.3
2016-03-22T01:32:47.983Z,81.21
2016-03-22T01:33:47.969Z,81.68
2016-03-22T01:34:47.941Z,81.4
2016-03-22T01:35:47.913Z,81.21
2016-03-22T01:36:47.883Z,81.49
2016-03-22T01:37:47.855Z,81.84
2016-03-22T01:38:47.826Z,81.93
2016-03-22T01:39:47.799Z,81.84
2016-03-22T01:40:47.769Z,82.5
2016-03-22T01:41:47.741Z,82.21
2016-03-22T01:42:47.727Z,82.12
2016-03-22T01:43:47.699Z,82.31
2016-03-22T01:44:47.671Z,82.5
2016-03-22T01:45:47.642Z,82.4
2016-03-22T01:46:47.613Z,82.5
2016-03-22T01:47:47.584Z,82.5
2016-03-22T01:48:47.557Z,82.5
2016-03-22T01:49:47.528Z,82.31
2016-03-22T01:50:47.499Z,82.31
2016-03-22T01:51:47.487Z,82.4
2016-03-22T01:52:47.458Z,82.31
2016-03-22T01:53:47.429Z,82.5
2016-03-22T01:54:47.401Z,82.5
2016-03-22T01:55:47.372Z,82.4
2016-03-22T01:56:47.344Z,82.35
2016-03-22T01:57:47.327Z,82.64
2016-03-22T01:58:47.269Z,82.5
2016-03-22T01:59:47.243Z,82.5
2016-03-22T02:00:47.201Z,82.97
2016-03-22T02:01:47.159Z,82.78
2016-03-22T02:02:47.120Z,83.36
2016-03-22T02:03:47.085Z,83.26
2016-03-22T02:04:47.068Z,83.16
2016-03-22T02:05:47.019Z,83.16
2016-03-22T02:06:46.985Z,82.78
2016-03-22T02:07:46.968Z,83.01
2016-03-22T02:08:46.939Z,82.78
2016-03-22T02:09:46.908Z,82.69
2016-03-22T02:10:46.877Z,82.97
2016-03-22T02:11:46.848Z,82.88
2016-03-22T02:12:46.818Z,83.07
2016-03-22T02:13:46.803Z,82.97
2016-03-22T02:14:46.758Z,83.01
2016-03-22T02:15:46.746Z,82.97
2016-03-22T02:16:46.715Z,82.97
2016-03-22T02:17:46.687Z,83.2
2016-03-22T02:18:46.659Z,83.26
2016-03-22T02:19:46.630Z,83.11
2016-03-22T02:20:46.601Z,83.16
2016-03-22T02:21:46.573Z,83.16
2016-03-22T02:22:46.544Z,83.07
2016-03-22T02:23:46.531Z,83.07
2016-03-22T02:24:46.503Z,82.97
2016-03-22T02:25:46.474Z,83.01
2016-03-22T02:26:46.446Z,83.11
2016-03-22T02:27:46.417Z,83.16
2016-03-22T02:28:46.388Z,82.97
2016-03-22T02:29:46.375Z,82.97
2016-03-22T02:30:46.336Z,82.97
2016-03-22T02:31:46.307Z,83.16
2016-03-22T02:32:46.279Z,82.97
2016-03-22T02:33:46.251Z,83.01
2016-03-22T02:34:46.221Z,83.01
2016-03-22T02:35:46.210Z,83.2
2016-03-22T02:36:46.181Z,82.97
2016-03-22T02:37:46.151Z,82.97
2016-03-22T02:38:46.123Z,83.39
2016-03-22T02:39:46.095Z,83.01
2016-03-22T02:40:46.066Z,83.01
2016-03-22T02:41:46.038Z,83.07
2016-03-22T02:42:46.009Z,83.16
2016-03-22T02:43:45.995Z,83.36
2016-03-22T02:44:45.968Z,83.54
2016-03-22T02:45:45.939Z,83.16
2016-03-22T02:46:45.910Z,83.16
2016-03-22T02:47:45.881Z,83.36
2016-03-22T02:48:45.869Z,83.36
2016-03-22T02:49:45.825Z,83.54
2016-03-22T02:50:45.797Z,83.36
2016-03-22T02:51:45.783Z,83.45
2016-03-22T02:52:45.755Z,83.36
2016-03-22T02:53:45.727Z,83.26
2016-03-22T02:54:45.697Z,83.3
2016-03-22T02:55:45.669Z,83.36
2016-03-22T02:56:45.641Z,83.49
2016-03-22T02:57:45.613Z,83.39
2016-03-22T02:58:45.583Z,83.16
2016-03-22T02:59:45.555Z,83.39
2016-03-22T03:00:45.541Z,83.92
2016-03-22T03:01:45.513Z,83.83
2016-03-22T03:02:45.485Z,83.87
2016-03-22T03:03:45.456Z,83.73
2016-03-22T03:04:45.427Z,83.92
2016-03-22T03:05:45.399Z,83.87
2016-03-22T03:06:45.371Z,83.49
2016-03-22T03:07:45.342Z,83.59
2016-03-22T03:08:45.329Z,83.97
2016-03-22T03:09:45.301Z,83.83
2016-03-22T03:10:45.272Z,83.87
2016-03-22T03:11:45.243Z,84.06
2016-03-22T03:12:45.215Z,83.87
2016-03-22T03:13:45.186Z,83.87
2016-03-22T03:14:45.204Z,83.87
2016-03-22T03:15:45.129Z,83.87
2016-03-22T03:16:45.100Z,83.39
2016-03-22T03:17:45.073Z,83.2
2016-03-22T03:18:45.059Z,83.2
2016-03-22T03:19:45.030Z,83.2
2016-03-22T03:20:45.003Z,83.39
2016-03-22T03:21:44.973Z,83.2
2016-03-22T03:22:44.944Z,83.59
2016-03-22T03:23:44.916Z,83.2
2016-03-22T03:24:44.903Z,83.2
2016-03-22T03:25:44.858Z,83.2
2016-03-22T03:26:44.847Z,83.59
2016-03-22T03:27:44.818Z,83.97
2016-03-22T03:28:44.788Z,83.87
2016-03-22T03:29:44.761Z,83.87
2016-03-22T03:30:44.732Z,84.06
2016-03-22T03:31:44.704Z,83.78
2016-03-22T03:32:44.674Z,83.68
2016-03-22T03:33:44.662Z,83.78
2016-03-22T03:34:44.633Z,83.78
2016-03-22T03:35:44.605Z,83.68
2016-03-22T03:36:44.576Z,83.87
2016-03-22T03:37:44.548Z,84.06
2016-03-22T03:38:44.519Z,84.01
2016-03-22T03:39:44.491Z,83.68
2016-03-22T03:40:44.462Z,83.64
2016-03-22T03:41:44.433Z,83.78
2016-03-22T03:42:44.421Z,84.01
2016-03-22T03:43:44.392Z,84.01
2016-03-22T03:44:44.364Z,84.06
2016-03-22T03:45:44.334Z,83.92
2016-03-22T03:46:44.306Z,84.06
2016-03-22T03:47:44.278Z,83.97
2016-03-22T03:48:44.250Z,83.73
2016-03-22T03:49:44.220Z,83.97
2016-03-22T03:50:44.191Z,84.25
2016-03-22T03:51:44.179Z,84.34
2016-03-22T03:52:44.150Z,84.25
2016-03-22T03:53:44.122Z,84.44
2016-03-22T03:54:44.094Z,84.21
2016-03-22T03:55:44.064Z,83.87
2016-03-22T03:56:44.036Z,84.21
2016-03-22T03:57:44.008Z,84.01
2016-03-22T03:58:43.994Z,84.11
2016-03-22T03:59:43.950Z,84.01
2016-03-22T04:00:43.938Z,83.92
2016-03-22T04:01:43.924Z,84.16
2016-03-22T04:02:43.880Z,84.16
2016-03-22T04:03:43.852Z,84.06
2016-03-22T04:04:43.823Z,84.06
2016-03-22T04:05:43.795Z,84.44
2016-03-22T04:06:43.766Z,83.87
2016-03-22T04:07:43.754Z,83.59
2016-03-22T04:08:43.724Z,84.16
2016-03-22T04:09:43.727Z,84.06
2016-03-22T04:10:43.667Z,84.34
2016-03-22T04:11:43.639Z,83.97
2016-03-22T04:12:43.610Z,83.97
2016-03-22T04:13:43.582Z,84.06
2016-03-22T04:14:43.553Z,84.34
2016-03-22T04:15:43.525Z,84.63
2016-03-22T04:16:43.512Z,84.49
2016-03-22T04:17:43.483Z,85.06
2016-03-22T04:18:43.455Z,84.87
2016-03-22T04:19:43.426Z,84.82
2016-03-22T04:20:43.413Z,84.63
2016-03-22T04:21:43.370Z,84.68
2016-03-22T04:22:43.341Z,85.25
2016-03-22T04:23:43.311Z,85.3
2016-03-22T04:24:43.300Z,85.3
2016-03-22T04:25:43.270Z,85.11
2016-03-22T04:26:43.242Z,85.01
2016-03-22T04:27:43.213Z,85.11
2016-03-22T04:28:43.185Z,85.11
2016-03-22T04:29:43.156Z,85.01
2016-03-22T04:30:43.128Z,85.58
2016-03-22T04:31:43.099Z,85.39
2016-03-22T04:32:43.085Z,85.25
2016-03-22T04:33:43.058Z,85.63
2016-03-22T04:34:43.029Z,85.82
2016-03-22T04:35:43.001Z,85.91
2016-03-22T04:36:42.971Z,85.63
2016-03-22T04:37:42.943Z,86.11
2016-03-22T04:38:42.915Z,86.3
2016-03-22T04:39:42.887Z,86.11
2016-03-22T04:40:42.874Z,85.91
2016-03-22T04:41:42.845Z,85.91
2016-03-22T04:42:42.815Z,86.2
2016-03-22T04:43:42.788Z,86.01
2016-03-22T04:44:42.759Z,86.2
2016-03-22T04:45:42.730Z,86.2
2016-03-22T04:46:42.702Z,86.39
2016-03-22T04:47:42.673Z,86.49
2016-03-22T04:48:42.661Z,86.3
2016-03-22T04:49:42.617Z,86.2
2016-03-22T04:50:42.587Z,86.2
2016-03-22T04:51:42.575Z,86.01
2016-03-22T04:52:42.547Z,86.2
2016-03-22T04:53:42.517Z,86.2
2016-03-22T04:54:42.489Z,86.11
2016-03-22T04:55:42.460Z,86.3
2016-03-22T04:56:42.433Z,86.2
2016-03-22T04:57:42.403Z,86.11
2016-03-22T04:58:42.375Z,86.2
2016-03-22T04:59:42.346Z,86.11
2016-03-22T05:00:42.333Z,86.2
2016-03-22T05:01:42.305Z,86.01
2016-03-22T05:02:42.276Z,86.11
2016-03-22T05:03:42.247Z,86.05
2016-03-22T05:04:42.218Z,86.24
2016-03-22T05:05:42.191Z,86.39
2016-03-22T05:06:42.162Z,86.01
2016-03-22T05:07:42.133Z,86.34
2016-03-22T05:08:42.121Z,86.34
2016-03-22T05:09:42.092Z,86.43
2016-03-22T05:10:42.063Z,86.34
2016-03-22T05:11:42.035Z,86.63
2016-03-22T05:12:42.006Z,86.24
2016-03-22T05:13:41.978Z,86.15
2016-03-22T05:14:41.949Z,86.05
2016-03-22T05:15:41.920Z,86.24
2016-03-22T05:16:41.893Z,86.24
2016-03-22T05:17:41.879Z,86.05
2016-03-22T05:18:41.851Z,85.96
2016-03-22T05:19:41.822Z,86.15
2016-03-22T05:20:41.793Z,86.05
2016-03-22T05:21:41.765Z,86.15
2016-03-22T05:22:41.736Z,86.05
2016-03-22T05:23:41.708Z,85.77
2016-03-22T05:24:41.678Z,86.15
2016-03-22T05:25:41.666Z,86.11
2016-03-22T05:26:41.638Z,86.15
2016-03-22T05:27:41.609Z,85.96
2016-03-22T05:28:41.581Z,85.96
2016-03-22T05:29:41.552Z,86.15
2016-03-22T05:30:41.524Z,86.24
2016-03-22T05:31:41.494Z,85.86
2016-03-22T05:32:41.466Z,86.24
2016-03-22T05:33:41.453Z,86.15
2016-03-22T05:34:41.424Z,86.15
2016-03-22T05:35:41.397Z,86.15
2016-03-22T05:36:41.368Z,86.15
2016-03-22T05:37:41.358Z,86.24
2016-03-22T05:38:41.305Z,86.24
2016-03-22T05:39:41.265Z,86.34
2016-03-22T05:40:41.241Z,86.05
2016-03-22T05:41:41.213Z,85.96
2016-03-22T05:42:41.184Z,86.34
2016-03-22T05:43:41.156Z,85.86
2016-03-22T05:44:41.127Z,85.68
2016-03-22T05:45:41.099Z,85.86
2016-03-22T05:46:41.086Z,85.96
2016-03-22T05:47:41.057Z,86.15
2016-03-22T05:48:41.029Z,86.24
2016-03-22T05:49:41.000Z,85.96
2016-03-22T05:50:40.971Z,86.15
2016-03-22T05:51:40.944Z,86.15
2016-03-22T05:52:40.915Z,86.15
2016-03-22T05:53:40.886Z,85.86
2016-03-22T05:54:40.873Z,86.15
2016-03-22T05:55:40.844Z,86.05
2016-03-22T05:56:40.816Z,85.63
2016-03-22T05:57:40.787Z,85.63
2016-03-22T05:58:40.760Z,86.11
2016-03-22T05:59:40.730Z,86.01
2016-03-22T06:00:40.702Z,85.72
2016-03-22T06:01:40.689Z,86.15
2016-03-22T06:02:40.645Z,86.15
2016-03-22T06:03:40.632Z,86.05
2016-03-22T06:04:40.603Z,86.05
2016-03-22T06:05:40.575Z,86.15
2016-03-22T06:06:40.546Z,86.15
2016-03-22T06:07:40.517Z,86.05
2016-03-22T06:08:40.489Z,86.05
2016-03-22T06:09:40.461Z,86.15
2016-03-22T06:10:40.448Z,86.34
2016-03-22T06:11:40.419Z,86.34
2016-03-22T06:12:40.389Z,86.24
2016-03-22T06:13:40.362Z,85.68
2016-03-22T06:14:40.333Z,85.86
2016-03-22T06:15:40.305Z,85.77
2016-03-22T06:16:40.275Z,85.77
2016-03-22T06:17:40.247Z,85.96
2016-03-22T06:18:40.234Z,85.86
2016-03-22T06:19:40.205Z,85.68
2016-03-22T06:20:40.178Z,85.86
2016-03-22T06:21:40.164Z,85.86
2016-03-22T06:22:40.121Z,85.96
2016-03-22T06:23:40.091Z,85.96
2016-03-22T06:24:40.063Z,85.77
2016-03-22T06:25:40.050Z,85.2
2016-03-22T06:26:40.021Z,85.3
2016-03-22T06:27:39.993Z,85.58
2016-03-22T06:28:39.964Z,85.2
2016-03-22T06:29:39.936Z,85.2
2016-03-22T06:30:39.907Z,85.39
2016-03-22T06:31:39.895Z,85.01
2016-03-22T06:32:39.866Z,85.2
2016-03-22T06:33:39.837Z,85.01
2016-03-22T06:34:39.809Z,85.2
2016-03-22T06:35:39.780Z,85.01
2016-03-22T06:36:39.752Z,85.11
2016-03-22T06:37:39.723Z,84.63
2016-03-22T06:38:39.695Z,84.72
2016-03-22T06:39:39.681Z,84.91
2016-03-22T06:40:39.653Z,85.11
2016-03-22T06:41:39.625Z,84.44
2016-03-22T06:42:39.595Z,84.25
2016-03-22T06:43:39.568Z,84.53
2016-03-22T06:44:39.555Z,84.53
2016-03-22T06:45:39.526Z,84.34
2016-03-22T06:46:39.497Z,84.44
2016-03-22T06:47:39.469Z,84.16
2016-03-22T06:48:39.440Z,83.97
2016-03-22T06:49:39.411Z,83.68
2016-03-22T06:50:39.382Z,83.59
2016-03-22T06:51:39.369Z,84.53
2016-03-22T06:52:39.341Z,84.44
2016-03-22T06:53:39.313Z,83.39
2016-03-22T06:54:39.285Z,84.25
2016-03-22T06:55:39.255Z,83.3
2016-03-22T06:56:39.243Z,84.16
2016-03-22T06:57:39.214Z,83.2
2016-03-22T06:58:39.186Z,83.68
2016-03-22T06:59:39.157Z,83.68
2016-03-22T07:00:39.129Z,83.97
2016-03-22T07:01:39.115Z,83.87
2016-03-22T07:02:39.087Z,83.59
2016-03-22T07:03:39.059Z,83.62
2016-03-22T07:04:39.029Z,84.01
2016-03-22T07:05:39.002Z,83.72
2016-03-22T07:06:38.989Z,83.06
2016-03-22T07:07:38.950Z,83.34
2016-03-22T07:08:38.920Z,83.25
2016-03-22T07:09:38.908Z,83.62
2016-03-22T07:10:38.879Z,83.44
2016-03-22T07:11:38.850Z,83.25
2016-03-22T07:12:38.823Z,83.06
2016-03-22T07:13:38.794Z,83.06
2016-03-22T07:14:38.781Z,83.15
2016-03-22T07:15:38.752Z,83.06
2016-03-22T07:16:38.724Z,83.15
2016-03-22T07:17:38.695Z,82.96
2016-03-22T07:18:38.682Z,83.25
2016-03-22T07:19:38.638Z,82.58
2016-03-22T07:20:38.624Z,82.58
2016-03-22T07:21:38.596Z,82.77
2016-03-22T07:22:38.583Z,82.29
2016-03-22T07:23:38.538Z,82.49
2016-03-22T07:24:38.526Z,82.58
2016-03-22T07:25:38.498Z,82.49
2016-03-22T07:26:38.468Z,82.1
2016-03-22T07:27:38.440Z,82.39
2016-03-22T07:28:38.412Z,82.2
2016-03-22T07:29:38.399Z,82.39
2016-03-22T07:30:38.370Z,82.68
2016-03-22T07:31:38.357Z,81.92
2016-03-22T07:32:38.313Z,81.92
2016-03-22T07:33:38.300Z,82.49
2016-03-22T07:34:38.256Z,82.1
2016-03-22T07:35:38.243Z,81.92
2016-03-22T07:36:38.215Z,82.1
2016-03-22T07:37:38.186Z,81.92
2016-03-22T07:38:38.158Z,81.92
2016-03-22T07:39:38.129Z,82.29
2016-03-22T07:40:38.116Z,82.2
2016-03-22T07:41:38.087Z,82.2
2016-03-22T07:42:38.058Z,81.63
2016-03-22T07:43:38.031Z,81.73
2016-03-22T07:44:38.017Z,81.92
2016-03-22T07:45:37.989Z,81.73
2016-03-22T07:46:37.961Z,81.73
2016-03-22T07:47:37.932Z,81.44
2016-03-22T07:48:37.903Z,81.35
2016-03-22T07:49:37.890Z,81.16
2016-03-22T07:50:37.862Z,81.06
2016-03-22T07:51:37.833Z,81.44
2016-03-22T07:52:37.804Z,81.16
2016-03-22T07:53:37.776Z,81.16
2016-03-22T07:54:37.763Z,81.16
2016-03-22T07:55:37.734Z,81.16
2016-03-22T07:56:37.706Z,81.35
2016-03-22T07:57:37.677Z,81.25
2016-03-22T07:58:37.649Z,80.96
2016-03-22T07:59:37.635Z,81.16
2016-03-22T08:00:37.607Z,81.44
2016-03-22T08:01:37.579Z,81.16
2016-03-22T08:02:37.550Z,80.77
2016-03-22T08:03:37.537Z,80.58
2016-03-22T08:04:37.509Z,80.87
2016-03-22T08:05:37.480Z,81.25
2016-03-22T08:06:37.452Z,81.06
2016-03-22T08:07:37.423Z,80.87
2016-03-22T08:08:37.410Z,80.77
2016-03-22T08:09:37.381Z,80.96
2016-03-22T08:10:37.353Z,80.96
2016-03-22T08:11:37.340Z,80.96
2016-03-22T08:12:37.311Z,80.3
2016-03-22T08:13:37.283Z,80.4
2016-03-22T08:14:37.255Z,79.92
2016-03-22T08:15:37.225Z,80.11
2016-03-22T08:16:37.213Z,80.44
2016-03-22T08:17:37.184Z,79.68
2016-03-22T08:18:37.156Z,79.77
2016-03-22T08:19:37.127Z,80.15
2016-03-22T08:20:37.114Z,80.05
2016-03-22T08:21:37.085Z,79.77
2016-03-22T08:22:37.058Z,79.68
2016-03-22T08:23:37.029Z,79.2
2016-03-22T08:24:37.016Z,79.39
2016-03-22T08:25:36.987Z,79.58
2016-03-22T08:26:36.958Z,79.3
2016-03-22T08:27:36.930Z,79.39
2016-03-22T08:28:36.918Z,78.82
2016-03-22T08:29:36.889Z,78.63
2016-03-22T08:30:36.860Z,79.11
2016-03-22T08:31:36.846Z,78.34
2016-03-22T08:32:36.818Z,78.53
2016-03-22T08:33:36.790Z,78.16
2016-03-22T08:34:36.776Z,77.68
2016-03-22T08:35:36.748Z,78.16
2016-03-22T08:36:36.719Z,78.16
2016-03-22T08:37:36.692Z,77.68
2016-03-22T08:38:36.678Z,77.68
2016-03-22T08:39:36.650Z,78.16
2016-03-22T08:40:36.684Z,77.58
2016-03-22T08:41:36.608Z,77.49
2016-03-22T08:42:36.580Z,77.49
2016-03-22T08:43:36.551Z,76.73
2016-03-22T08:44:36.539Z,76.82
2016-03-22T08:45:36.509Z,76.67
2016-03-22T08:46:36.480Z,76.39
2016-03-22T08:47:36.469Z,76.1
2016-03-22T08:48:36.439Z,76.06
2016-03-22T08:49:36.411Z,76.54
2016-03-22T08:50:36.398Z,76.16
2016-03-22T08:51:36.369Z,76.01
2016-03-22T08:52:36.341Z,75.96
2016-03-22T08:53:36.327Z,76.48
2016-03-22T08:54:36.300Z,76.1
2016-03-22T08:55:36.286Z,75.81
2016-03-22T08:56:36.257Z,75.81
2016-03-22T08:57:36.230Z,75.53
2016-03-22T08:58:36.216Z,75.43
2016-03-22T08:59:36.188Z,75.72
2016-03-22T09:00:36.160Z,75.72
2016-03-22T09:01:36.194Z,75.05
2016-03-22T09:02:36.118Z,75.62
2016-03-22T09:03:36.104Z,75.24
2016-03-22T09:04:36.076Z,75.15
2016-03-22T09:05:36.048Z,74.96
2016-03-22T09:06:36.032Z,74.96
2016-03-22T09:07:36.003Z,74.96
2016-03-22T09:08:35.975Z,74.96
2016-03-22T09:09:35.962Z,74.96
2016-03-22T09:10:35.980Z,74.67
2016-03-22T09:11:35.905Z,74.58
2016-03-22T09:12:35.892Z,74.01
2016-03-22T09:13:35.895Z,73.72
2016-03-22T09:14:35.850Z,74.01
2016-03-22T09:15:35.869Z,73.66
2016-03-22T09:16:35.808Z,73.66
2016-03-22T09:17:35.780Z,73.38
2016-03-22T09:18:35.751Z,73.25
2016-03-22T09:19:35.724Z,73.1
2016-03-22T09:20:35.710Z,73.47
2016-03-22T09:21:35.681Z,73.28
2016-03-22T09:22:35.668Z,72.9
2016-03-22T09:23:35.640Z,73.1
2016-03-22T09:24:35.612Z,73.1
2016-03-22T09:25:35.598Z,72.9
2016-03-22T09:26:35.571Z,72.52
2016-03-22T09:27:35.541Z,73.1
2016-03-22T09:28:35.528Z,72.52
2016-03-22T09:29:35.500Z,72.62
2016-03-22T09:30:35.487Z,72.52
2016-03-22T09:31:35.459Z,72.24
2016-03-22T09:32:35.445Z,71.86
2016-03-22T09:33:35.417Z,71.86
2016-03-22T09:34:35.389Z,71.57
2016-03-22T09:35:35.375Z,71.28
2016-03-22T09:36:35.348Z,71
2016-03-22T09:37:35.334Z,70.62
2016-03-22T09:38:35.305Z,70.81
2016-03-22T09:39:35.292Z,70.62
2016-03-22T09:40:35.280Z,70.75
2016-03-22T09:41:35.236Z,70.65
2016-03-22T09:42:35.222Z,70.27
2016-03-22T09:43:35.209Z,69.89
2016-03-22T09:44:35.180Z,70.18
2016-03-22T09:45:35.153Z,69.89
2016-03-22T09:46:35.139Z,69.99
2016-03-22T09:47:35.111Z,70.37
2016-03-22T09:48:35.097Z,70.08
2016-03-22T09:49:35.069Z,69.89
2016-03-22T09:50:35.057Z,69.7
2016-03-22T09:51:35.027Z,69.6
2016-03-22T09:52:35.015Z,69.6
2016-03-22T09:53:34.986Z,69.51
2016-03-22T09:54:34.957Z,69.51
2016-03-22T09:55:34.946Z,69.6
2016-03-22T09:56:34.916Z,69.42
2016-03-22T09:57:34.904Z,69.42
2016-03-22T09:58:34.874Z,68.75
2016-03-22T09:59:34.862Z,68.46
2016-03-22T10:00:34.834Z,68.56
2016-03-22T10:01:34.820Z,68.08
2016-03-22T10:02:34.792Z,67.7
2016-03-22T10:03:34.779Z,67.7
2016-03-22T10:04:34.750Z,67.7
2016-03-22T10:05:34.738Z,67.22
2016-03-22T10:06:34.709Z,67.22
2016-03-22T10:07:34.695Z,67.41
2016-03-22T10:08:34.668Z,67.41
2016-03-22T10:09:34.654Z,67.03
2016-03-22T10:10:34.626Z,67.13
2016-03-22T10:11:34.613Z,67.7
2016-03-22T10:12:34.584Z,67.8
2016-03-22T10:13:34.572Z,67.89
2016-03-22T10:14:34.543Z,68.08
2016-03-22T10:15:34.514Z,67.99
2016-03-22T10:16:34.595Z,68.27
2016-03-22T10:17:34.472Z,68.56
2016-03-22T10:18:34.460Z,68.08
2016-03-22T10:19:34.431Z,68.56
2016-03-22T10:20:34.402Z,68.56
2016-03-22T10:21:34.405Z,68.84
2016-03-22T10:22:34.361Z,68.84
2016-03-22T10:23:34.348Z,68.9
2016-03-22T10:24:34.319Z,69.51
2016-03-22T10:25:34.291Z,69.42
2016-03-22T10:26:34.279Z,69.42
2016-03-22T10:27:34.249Z,69.42
2016-03-22T10:28:34.237Z,69.13
2016-03-22T10:29:34.208Z,68.84
2016-03-22T10:30:34.195Z,68.75
2016-03-22T10:31:34.167Z,68.37
2016-03-22T10:32:34.138Z,68.56
2016-03-22T10:33:34.125Z,67.99
2016-03-22T10:34:34.096Z,67.93
2016-03-22T10:35:34.084Z,67.83
2016-03-22T10:36:34.087Z,67.03
2016-03-22T10:37:34.042Z,66.69
2016-03-22T10:38:34.014Z,66.59
2016-03-22T10:39:34.001Z,66.69
2016-03-22T10:40:33.972Z,66.4
2016-03-22T10:41:33.958Z,65.55
2016-03-22T10:42:33.930Z,65.26
2016-03-22T10:43:33.917Z,65.45
2016-03-22T10:44:33.889Z,64.87
2016-03-22T10:45:33.876Z,64.69
2016-03-22T10:46:33.863Z,64.69
2016-03-22T10:47:33.835Z,64.02
2016-03-22T10:48:33.806Z,63.86
2016-03-22T10:49:33.794Z,63.96
2016-03-22T10:50:33.764Z,63.48
2016-03-22T10:51:33.751Z,63.76
2016-03-22T10:52:33.738Z,63.45
2016-03-22T10:53:33.710Z,63.45
2016-03-22T10:54:33.697Z,64.02
2016-03-22T10:55:33.669Z,63.73
2016-03-22T10:56:33.655Z,63.17
2016-03-22T10:57:33.643Z,63.54
2016-03-22T10:58:33.614Z,63.64
2016-03-22T10:59:33.586Z,63.83
2016-03-22T11:00:33.573Z,63.54
2016-03-22T11:01:33.700Z,63.73
2016-03-22T11:02:33.532Z,63.29
2016-03-22T11:03:33.532Z,62.97
2016-03-22T11:04:33.482Z,63.17
2016-03-22T11:05:33.462Z,62.91
2016-03-22T11:06:33.427Z,62.91
2016-03-22T11:07:33.409Z,62.15
2016-03-22T11:08:33.391Z,62.15
2016-03-22T11:09:33.360Z,61.96
2016-03-22T11:10:33.329Z,61.29
2016-03-22T11:11:33.314Z,61.38
2016-03-22T11:12:33.299Z,60.72
2016-03-22T11:13:33.268Z,61.1
2016-03-22T11:14:33.255Z,60.43
2016-03-22T11:15:33.226Z,60.52
2016-03-22T11:16:33.211Z,60.52
2016-03-22T11:17:33.182Z,60.91
2016-03-22T11:18:33.169Z,60.81
2016-03-22T11:19:33.139Z,60.72
2016-03-22T11:20:33.126Z,61.67
2016-03-22T11:21:33.129Z,61.57
2016-03-22T11:22:33.084Z,61.54
2016-03-22T11:23:33.118Z,61.64
2016-03-22T11:24:33.043Z,61.67
2016-03-22T11:25:33.029Z,61.29
2016-03-22T11:26:33.001Z,61.48
2016-03-22T11:27:32.988Z,60.81
2016-03-22T11:28:33.084Z,60.91
2016-03-22T11:29:32.946Z,60.81
2016-03-22T11:30:32.917Z,60.62
2016-03-22T11:31:32.906Z,60.24
2016-03-22T11:32:32.876Z,60.05
2016-03-22T11:33:32.864Z,59.86
2016-03-22T11:34:32.850Z,59.48
2016-03-22T11:35:32.822Z,59.38
2016-03-22T11:36:32.809Z,59.57
2016-03-22T11:37:32.781Z,58.81
2016-03-22T11:38:32.767Z,58.81
2016-03-22T11:39:32.754Z,58.43
2016-03-22T11:40:32.726Z,58.62
2016-03-22T11:41:32.853Z,58.24
2016-03-22T11:42:32.794Z,58.24
2016-03-22T11:43:32.797Z,58.04
2016-03-22T11:44:32.736Z,58.14
2016-03-22T11:45:32.739Z,58.26
2016-03-22T11:46:32.727Z,57.6
2016-03-22T11:47:32.666Z,56.93
2016-03-22T11:48:32.576Z,56.93
2016-03-22T11:49:32.562Z,56.36
2016-03-22T11:50:32.535Z,56.2
2016-03-22T11:51:32.521Z,56.38
2016-03-22T11:52:32.508Z,56.01
2016-03-22T11:53:32.479Z,55.82
2016-03-22T11:54:32.467Z,56.2
2016-03-22T11:55:32.438Z,55.82
2016-03-22T11:56:32.426Z,55.79
2016-03-22T11:57:32.396Z,55.79
2016-03-22T11:58:32.384Z,55.79
2016-03-22T11:59:32.371Z,55.88
2016-03-22T12:00:32.389Z,55.79
2016-03-22T12:01:32.329Z,55.69
2016-03-22T12:02:32.317Z,55.88
2016-03-22T12:03:32.522Z,55.98
2016-03-22T12:04:32.275Z,55.98
2016-03-22T12:05:32.262Z,56.17
2016-03-22T12:06:32.233Z,56.26
2016-03-22T12:07:32.220Z,56.17
2016-03-22T12:08:32.191Z,56.17
2016-03-22T12:09:32.179Z,56.07
2016-03-22T12:10:32.166Z,56.17
2016-03-22T12:11:32.138Z,55.98
2016-03-22T12:12:32.125Z,55.98
2016-03-22T12:13:32.111Z,55.31
2016-03-22T12:14:32.083Z,55.05
2016-03-22T12:15:32.070Z,54.67
2016-03-22T12:16:32.041Z,54.29
2016-03-22T12:17:32.029Z,54.57
2016-03-22T12:18:32.015Z,54.38
2016-03-22T12:19:31.988Z,53.91
2016-03-22T12:20:31.990Z,53.81
2016-03-22T12:21:31.961Z,52.88
2016-03-22T12:22:31.933Z,52.95
2016-03-22T12:23:31.920Z,53.81
2016-03-22T12:24:31.907Z,53.72
2016-03-22T12:25:31.879Z,54
2016-03-22T12:26:31.865Z,54.1
2016-03-22T12:27:31.851Z,53.81
2016-03-22T12:28:31.854Z,53.62
2016-03-22T12:29:31.811Z,53.81
2016-03-22T12:30:31.798Z,53.62
2016-03-22T12:31:31.785Z,53.91
2016-03-22T12:32:31.756Z,53.24
2016-03-22T12:33:31.743Z,53.24
2016-03-22T12:34:31.730Z,53.24
2016-03-22T12:35:31.703Z,53.59
2016-03-22T12:36:31.689Z,53.72
2016-03-22T12:37:31.660Z,53.69
2016-03-22T12:38:31.648Z,53.62
2016-03-22T12:39:31.634Z,53.91
2016-03-22T12:40:31.606Z,53.91
2016-03-22T12:41:31.594Z,53.62
2016-03-22T12:42:31.580Z,53.62
2016-03-22T12:43:31.567Z,53.88
2016-03-22T12:44:31.538Z,54.07
2016-03-22T12:45:31.511Z,53.88
2016-03-22T12:46:31.497Z,53.78
2016-03-22T12:47:31.485Z,53.69
2016-03-22T12:48:31.456Z,54.07
2016-03-22T12:49:31.443Z,53.69
2016-03-22T12:50:31.430Z,53.62
2016-03-22T12:51:31.402Z,53.91
2016-03-22T12:52:31.389Z,53.62
2016-03-22T12:53:31.360Z,53.24
2016-03-22T12:54:31.346Z,53.05
2016-03-22T12:55:31.335Z,53.24